createdAt,value
2023-04-18T00:03:28.897Z,62.79
2023-04-18T00:07:28.038Z,63.14
2023-04-18T00:11:29.005Z,63.18
2023-04-18T00:15:28.277Z,62.95
2023-04-18T00:19:28.062Z,63.37
2023-04-18T00:23:29.225Z,63.69
2023-04-18T00:31:28.178Z,63.24
2023-04-18T00:35:27.890Z,63.66
2023-04-18T00:39:28.018Z,64.06
2023-04-18T00:43:27.894Z,63.97
2023-04-18T00:47:28.270Z,64.67
2023-04-18T00:51:28.060Z,64.58
2023-04-18T00:59:28.648Z,64.60
2023-04-18T01:03:28.194Z,64.58
2023-04-18T01:07:29.766Z,64.58
2023-04-18T01:11:28.259Z,64.97
2023-04-18T01:15:28.205Z,64.90
2023-04-18T01:19:28.065Z,64.72
2023-04-18T01:23:29.220Z,65.03
2023-04-18T01:35:29.062Z,65.49
2023-04-18T01:39:28.109Z,65.61
2023-04-18T01:43:28.496Z,65.36
2023-04-18T01:47:28.153Z,65.74
2023-04-18T01:51:28.256Z,65.83
2023-04-18T01:55:28.173Z,65.16
2023-04-18T01:59:28.267Z,65.60
2023-04-18T02:03:28.334Z,65.68
2023-04-18T02:07:28.244Z,65.55
2023-04-18T02:11:28.854Z,65.73
2023-04-18T02:15:28.366Z,65.80
2023-04-18T02:23:28.371Z,66.26
2023-04-18T02:27:28.150Z,65.90
2023-04-18T02:31:28.301Z,66.08
2023-04-18T02:35:28.288Z,65.84
2023-04-18T02:39:28.537Z,66.02
2023-04-18T02:47:28.488Z,66.37
2023-04-18T02:51:28.367Z,66.11
2023-04-18T02:55:29.119Z,65.97
2023-04-18T02:59:28.422Z,65.79
2023-04-18T03:03:28.727Z,65.64
2023-04-18T03:07:29.774Z,65.66
2023-04-18T03:11:28.455Z,66.04
2023-04-18T03:15:30.022Z,66.58
2023-04-18T03:19:28.609Z,66.35
2023-04-18T03:23:28.335Z,66.48
2023-04-18T03:27:28.565Z,66.12
2023-04-18T03:31:28.390Z,65.99
2023-04-18T03:35:28.600Z,65.87
2023-04-18T03:39:28.422Z,65.55
2023-04-18T03:43:28.487Z,65.50
2023-04-18T03:47:30.222Z,65.67
2023-04-18T03:51:32.421Z,65.95
2023-04-18T03:55:28.537Z,65.81
2023-04-18T03:59:28.568Z,65.62
2023-04-18T04:03:29.085Z,65.54
2023-04-18T04:07:28.879Z,65.42
2023-04-18T04:11:28.508Z,65.68
2023-04-18T04:19:28.780Z,65.79
2023-04-18T04:27:28.671Z,65.93
2023-04-18T04:31:28.592Z,65.89
2023-04-18T04:35:28.833Z,65.75
2023-04-18T04:39:28.545Z,65.70
2023-04-18T04:43:29.238Z,65.74
2023-04-18T04:47:28.635Z,65.81
2023-04-18T04:51:29.048Z,65.68
2023-04-18T04:55:28.866Z,65.60
2023-04-18T04:59:28.701Z,65.42
2023-04-18T05:03:28.854Z,65.96
2023-04-18T05:07:29.864Z,65.54
2023-04-18T05:11:28.649Z,66.12
2023-04-18T05:15:29.062Z,66.56
2023-04-18T05:19:28.793Z,66.84
2023-04-18T05:27:28.863Z,67.08
2023-04-18T05:35:30.038Z,66.57
2023-04-18T05:39:28.744Z,66.75
2023-04-18T05:43:28.915Z,66.90
2023-04-18T05:47:29.326Z,66.60
2023-04-18T05:51:28.923Z,66.75
2023-04-18T05:55:28.790Z,66.69
2023-04-18T05:59:28.923Z,66.16
2023-04-18T06:03:29.124Z,66.62
2023-04-18T06:07:28.890Z,66.22
2023-04-18T06:11:28.848Z,66.35
2023-04-18T06:15:29.059Z,66.35
2023-04-18T06:19:28.828Z,66.07
2023-04-18T06:23:29.113Z,66.42
2023-04-18T06:27:31.424Z,65.86
2023-04-18T06:31:29.302Z,65.99
2023-04-18T06:35:30.053Z,66.44
2023-04-18T06:39:29.244Z,66.39
2023-04-18T06:43:28.918Z,66.64
2023-04-18T06:47:30.184Z,65.86
2023-04-18T06:51:29.068Z,66.26
2023-04-18T06:55:29.663Z,66.58
2023-04-18T06:59:28.950Z,66.25
2023-04-18T07:03:29.111Z,66.35
2023-04-18T07:07:30.062Z,66.30
2023-04-18T07:11:29.159Z,66.20
2023-04-18T07:15:29.271Z,65.94
2023-04-18T07:19:29.212Z,65.94
2023-04-18T07:23:28.988Z,65.73
2023-04-18T07:27:29.123Z,65.95
2023-04-18T07:31:30.245Z,65.96
2023-04-18T07:39:30.955Z,65.25
2023-04-18T07:43:29.246Z,65.08
2023-04-18T07:47:30.235Z,65.13
2023-04-18T07:51:30.736Z,64.59
2023-04-18T07:55:29.679Z,64.34
2023-04-18T07:59:31.101Z,64.13
2023-04-18T08:03:29.400Z,63.71
2023-04-18T08:07:30.856Z,63.45
2023-04-18T08:15:31.375Z,63.67
2023-04-18T08:19:29.150Z,63.26
2023-04-18T08:23:29.389Z,63.09
2023-04-18T08:27:30.340Z,62.18
2023-04-18T08:31:30.577Z,61.66
2023-04-18T08:35:29.229Z,61.58
2023-04-18T08:39:30.203Z,61.14
2023-04-18T08:43:30.216Z,61.40
2023-04-18T08:47:30.108Z,61.18
2023-04-18T08:51:31.968Z,60.01
2023-04-18T08:55:29.352Z,59.90
2023-04-18T08:59:29.541Z,60.48
2023-04-18T09:03:38.730Z,60.29
2023-04-18T09:07:29.758Z,59.89
2023-04-18T09:11:30.736Z,59.54
2023-04-18T09:15:30.001Z,59.57
2023-04-18T09:19:29.494Z,59.34
2023-04-18T09:23:29.341Z,59.31
2023-04-18T09:27:33.727Z,58.88
2023-04-18T09:31:29.429Z,58.55
2023-04-18T09:35:29.537Z,58.18
2023-04-18T09:43:29.496Z,58.13
2023-04-18T09:47:31.294Z,57.22
2023-04-18T09:51:30.899Z,56.63
2023-04-18T09:55:30.936Z,54.68
2023-04-18T09:59:39.280Z,55.57
2023-04-18T10:03:33.946Z,55.44
2023-04-18T10:07:30.704Z,54.79
2023-04-18T10:11:30.349Z,54.64
2023-04-18T10:15:30.830Z,54.63
2023-04-18T10:19:29.769Z,54.28
2023-04-18T10:23:34.020Z,53.99
2023-04-18T10:27:49.488Z,53.74
2023-04-18T10:31:38.170Z,51.74
2023-04-18T10:35:29.579Z,53.21
2023-04-18T10:39:29.977Z,52.62
2023-04-18T10:43:29.684Z,52.75
2023-04-18T10:47:29.947Z,52.50
2023-04-18T10:51:29.759Z,52.24
2023-04-18T10:55:30.434Z,52.57
2023-04-18T10:59:31.323Z,52.87
2023-04-18T11:03:31.713Z,52.89
2023-04-18T11:07:31.576Z,52.84
2023-04-18T11:11:29.774Z,52.25
2023-04-18T11:15:31.004Z,52.17
2023-04-18T11:19:29.943Z,52.57
2023-04-18T11:23:29.694Z,52.70
2023-04-18T11:27:30.586Z,52.75
2023-04-18T11:31:31.251Z,52.58
2023-04-18T11:35:30.179Z,52.58
2023-04-18T11:39:33.578Z,52.39
2023-04-18T11:43:29.980Z,52.86
2023-04-18T11:47:32.899Z,53.06
2023-04-18T11:51:37.269Z,53.35
2023-04-18T11:55:29.824Z,53.47
2023-04-18T11:59:30.107Z,53.42
2023-04-18T12:03:30.066Z,53.88
2023-04-18T12:07:33.317Z,53.69
2023-04-18T12:11:29.825Z,53.86
2023-04-18T12:15:30.936Z,53.67
2023-04-18T12:19:31.622Z,54.00
2023-04-18T12:23:32.825Z,53.84
2023-04-18T12:27:48.872Z,53.82
2023-04-18T12:31:30.154Z,53.57
2023-04-18T12:35:31.632Z,53.79
2023-04-18T12:39:30.024Z,53.94
2023-04-18T12:43:29.974Z,54.24
2023-04-18T12:47:30.613Z,54.40
2023-04-18T12:51:30.424Z,54.23
2023-04-18T12:55:30.323Z,53.77
2023-04-18T12:59:29.889Z,53.84
2023-04-18T13:03:31.090Z,54.01
2023-04-18T13:07:30.508Z,53.91
2023-04-18T13:11:30.518Z,53.76
2023-04-18T13:15:30.073Z,53.67
2023-04-18T13:19:30.659Z,53.69
2023-04-18T13:23:29.961Z,53.49
2023-04-18T13:27:30.348Z,53.17
2023-04-18T13:31:30.465Z,53.28
2023-04-18T13:35:30.234Z,52.92
2023-04-18T13:39:32.236Z,52.89
2023-04-18T13:47:30.640Z,52.74
2023-04-18T13:51:30.700Z,53.01
2023-04-18T13:55:30.165Z,53.12
2023-04-18T13:59:31.141Z,53.01
2023-04-18T14:03:30.569Z,52.43
2023-04-18T14:07:30.251Z,52.92
2023-04-18T14:11:30.323Z,52.63
2023-04-18T14:15:32.067Z,52.96
2023-04-18T14:19:30.284Z,53.01
2023-04-18T14:23:30.181Z,52.87
2023-04-18T14:27:30.397Z,52.39
2023-04-18T14:31:30.300Z,52.43
2023-04-18T14:35:31.188Z,52.29
2023-04-18T14:39:30.425Z,52.52
2023-04-18T14:43:30.506Z,52.38
2023-04-18T14:47:33.545Z,51.97
2023-04-18T14:51:30.356Z,52.12
2023-04-18T14:55:32.536Z,52.11
2023-04-18T14:59:30.432Z,52.26
2023-04-18T15:03:31.127Z,52.58
2023-04-18T15:07:30.646Z,52.54
2023-04-18T15:11:30.309Z,53.07
2023-04-18T15:15:33.983Z,52.95
2023-04-18T15:19:30.871Z,52.71
2023-04-18T15:23:30.947Z,52.64
2023-04-18T15:27:30.374Z,52.77
2023-04-18T15:31:30.598Z,52.91
2023-04-18T15:35:30.523Z,52.51
2023-04-18T15:39:30.460Z,52.13
2023-04-18T15:43:30.546Z,52.14
2023-04-18T15:47:32.655Z,52.26
2023-04-18T15:51:30.602Z,51.75
2023-04-18T15:55:30.530Z,51.45
2023-04-18T16:07:30.667Z,51.77
2023-04-18T16:11:30.492Z,51.87
2023-04-18T16:15:30.760Z,51.93
2023-04-18T16:19:31.043Z,51.93
2023-04-18T16:23:31.232Z,51.99
2023-04-18T16:27:31.122Z,52.13
2023-04-18T16:31:30.763Z,52.30
2023-04-18T16:35:30.708Z,52.51
2023-04-18T16:39:30.841Z,52.66
2023-04-18T16:43:35.212Z,52.97
2023-04-18T16:47:30.695Z,53.35
2023-04-18T16:51:30.701Z,53.32
2023-04-18T16:55:30.943Z,53.58
2023-04-18T16:59:30.876Z,53.53
2023-04-18T17:03:31.684Z,53.71
2023-04-18T17:07:30.631Z,53.54
2023-04-18T17:11:33.721Z,53.37
2023-04-18T17:15:30.660Z,53.20
2023-04-18T17:19:30.819Z,53.16
2023-04-18T17:23:32.791Z,52.92
2023-04-18T17:27:30.695Z,52.67
2023-04-18T17:31:31.471Z,53.08
2023-04-18T17:35:31.333Z,53.13
2023-04-18T17:39:30.836Z,53.10
2023-04-18T17:43:30.965Z,52.93
2023-04-18T17:51:30.952Z,53.08
2023-04-18T17:55:30.918Z,53.12
2023-04-18T17:59:36.462Z,53.02
2023-04-18T18:03:31.019Z,53.22
2023-04-18T18:07:33.861Z,53.22
2023-04-18T18:11:31.008Z,53.43
2023-04-18T18:15:31.048Z,53.51
2023-04-18T18:19:30.992Z,53.17
2023-04-18T18:23:30.994Z,53.00
2023-04-18T18:27:31.013Z,53.06
2023-04-18T18:31:31.065Z,52.68
2023-04-18T18:35:30.844Z,52.93
2023-04-18T18:39:31.055Z,52.79
2023-04-18T18:43:31.514Z,52.83
2023-04-18T18:47:31.019Z,52.95
2023-04-18T18:51:31.668Z,52.94
2023-04-18T18:55:31.111Z,53.02
2023-04-18T18:59:31.049Z,53.21
2023-04-18T19:03:31.256Z,53.12
2023-04-18T19:11:31.114Z,53.04
2023-04-18T19:15:31.124Z,53.18
2023-04-18T19:19:32.182Z,53.27
2023-04-18T19:23:31.022Z,53.19
2023-04-18T19:31:31.156Z,52.93
2023-04-18T19:35:31.040Z,53.00
2023-04-18T19:39:31.103Z,53.17
2023-04-18T19:43:31.267Z,53.37
2023-04-18T19:47:32.842Z,53.53
2023-04-18T19:51:31.423Z,53.67
2023-04-18T19:55:31.303Z,53.84
2023-04-18T19:59:31.091Z,54.12
2023-04-18T20:03:32.306Z,54.61
2023-04-18T20:10:36.428Z,55.06
2023-04-18T20:15:31.209Z,55.49
2023-04-18T20:19:31.290Z,56.11
2023-04-18T20:23:31.389Z,56.40
2023-04-18T20:27:31.353Z,57.13
2023-04-18T20:35:31.302Z,57.76
2023-04-18T20:39:31.537Z,58.05
2023-04-18T20:43:35.556Z,58.85
2023-04-18T20:47:32.381Z,59.15
2023-04-18T20:51:31.499Z,59.47
2023-04-18T20:55:31.285Z,59.71
2023-04-18T20:59:31.552Z,60.33
2023-04-18T21:03:31.431Z,60.13
2023-04-18T21:11:31.583Z,60.50
2023-04-18T21:15:31.365Z,60.98
2023-04-18T21:19:31.443Z,60.75
2023-04-18T21:27:31.537Z,61.32
2023-04-18T21:31:32.529Z,62.14
2023-04-18T21:35:31.668Z,61.94
2023-04-18T21:39:31.391Z,62.07
2023-04-18T21:43:31.635Z,62.23
2023-04-18T21:47:31.866Z,62.54
2023-04-18T21:55:31.571Z,63.25
2023-04-18T22:03:32.954Z,62.63
2023-04-18T22:11:32.226Z,63.38
2023-04-18T22:15:32.306Z,62.96
2023-04-18T22:19:32.304Z,63.39
2023-04-18T22:27:32.012Z,63.50
2023-04-18T22:31:31.567Z,63.59
2023-04-18T22:35:31.800Z,64.15
2023-04-18T22:43:31.834Z,63.98
2023-04-18T22:47:32.564Z,63.89
2023-04-18T22:55:31.815Z,63.99
2023-04-18T23:03:33.276Z,64.30
2023-04-18T23:07:32.325Z,64.04
2023-04-18T23:11:31.785Z,64.59
2023-04-18T23:15:31.693Z,64.70
2023-04-18T23:19:31.790Z,64.64
2023-04-18T23:27:31.815Z,64.90
2023-04-18T23:31:31.892Z,64.72
2023-04-18T23:35:31.801Z,64.76
2023-04-18T23:39:31.842Z,65.04
2023-04-18T23:43:32.467Z,65.00
2023-04-18T23:47:31.888Z,64.85
2023-04-18T23:51:31.774Z,64.87
2023-04-18T23:55:31.772Z,64.88
2023-04-18T23:59:31.889Z,64.88
